< < Back
Terminal Aerodrome Forecast


Current Version              Previous Versions:   1  2  3  4  5  6  7  8  9  

Terminal Aerodrome Forecast

865
FTUS42 KTAE 080530
TAFVLD
TAF
KVLD 080530Z 0806/0906 30005KT P6SM SKC
     FM081600 24010G18KT P6SM SCT050
     FM081800 24014G22KT 6SM -SHRA BKN050
     FM090000 28010KT P6SM BKN050=

Latest METAR

366
SAUS70 KWBC 081400 RRD
MTRVLD
METAR KVLD 081353Z 00000KT 10SM CLR 07/02 A3000 RMK AO2 SLP166
T00720017


USA.gov is the U.S. government's official web portal to all federal, state and local government web resources and services.